createdAt,value
2018-06-25T00:00:56.096Z,99.99
2018-06-25T00:01:56.195Z,99.99
2018-06-25T00:02:56.370Z,99.99
2018-06-25T00:03:57.107Z,99.99
2018-06-25T00:04:56.268Z,99.99
2018-06-25T00:05:57.588Z,99.99
2018-06-25T00:06:57.791Z,99.99
2018-06-25T00:07:57.810Z,99.99
2018-06-25T00:08:56.441Z,99.99
2018-06-25T00:09:56.192Z,99.99
2018-06-25T00:10:55.985Z,99.99
2018-06-25T00:11:55.978Z,99.99
2018-06-25T00:12:55.967Z,99.99
2018-06-25T00:13:55.959Z,99.99
2018-06-25T00:14:55.978Z,99.99
2018-06-25T00:15:55.937Z,99.99
2018-06-25T00:16:55.923Z,99.99
2018-06-25T00:17:55.910Z,99.99
2018-06-25T00:18:55.900Z,99.99
2018-06-25T00:19:55.889Z,99.99
2018-06-25T00:20:55.887Z,99.99
2018-06-25T00:21:55.874Z,99.99
2018-06-25T00:22:55.867Z,99.99
2018-06-25T00:23:55.850Z,99.99
2018-06-25T00:24:55.839Z,99.99
2018-06-25T00:25:55.858Z,99.99
2018-06-25T00:26:55.819Z,99.99
2018-06-25T00:27:55.806Z,99.99
2018-06-25T00:28:55.797Z,99.99
2018-06-25T00:29:55.785Z,99.99
2018-06-25T00:30:55.780Z,99.99
2018-06-25T00:31:55.761Z,99.99
2018-06-25T00:32:55.767Z,99.99
2018-06-25T00:33:55.744Z,99.99
2018-06-25T00:34:55.733Z,99.86
2018-06-25T00:35:55.751Z,99.99
2018-06-25T00:36:55.708Z,99.99
2018-06-25T00:37:55.698Z,99.99
2018-06-25T00:38:55.739Z,99.99
2018-06-25T00:39:55.696Z,99.99
2018-06-25T00:40:55.665Z,99.99
2018-06-25T00:41:55.682Z,99.99
2018-06-25T00:42:55.674Z,99.99
2018-06-25T00:43:55.658Z,99.99
2018-06-25T00:44:55.618Z,99.99
2018-06-25T00:45:55.620Z,99.99
2018-06-25T00:46:55.600Z,99.86
2018-06-25T00:47:55.613Z,99.99
2018-06-25T00:48:56.487Z,99.86
2018-06-25T00:49:55.585Z,99.99
2018-06-25T00:51:02.413Z,99.86
2018-06-25T00:51:55.964Z,99.99
2018-06-25T00:52:55.977Z,99.99
2018-06-25T00:53:56.627Z,99.99
2018-06-25T00:54:55.598Z,99.99
2018-06-25T00:55:56.542Z,99.99
2018-06-25T00:56:55.620Z,99.99
2018-06-25T00:57:55.827Z,99.99
2018-06-25T00:58:55.717Z,99.99
2018-06-25T00:59:55.474Z,99.99
2018-06-25T01:00:56.408Z,99.86
2018-06-25T01:01:55.440Z,99.99
2018-06-25T01:02:55.446Z,99.99
2018-06-25T01:03:55.483Z,99.99
2018-06-25T01:04:55.411Z,99.99
2018-06-25T01:05:55.432Z,99.99
2018-06-25T01:06:55.394Z,99.99
2018-06-25T01:07:55.607Z,99.99
2018-06-25T01:08:55.374Z,99.99
2018-06-25T01:09:55.368Z,99.99
2018-06-25T01:10:55.361Z,99.99
2018-06-25T01:11:55.348Z,99.99
2018-06-25T01:12:55.327Z,99.99
2018-06-25T01:13:55.402Z,99.99
2018-06-25T01:14:55.352Z,99.99
2018-06-25T01:15:57.933Z,99.99
2018-06-25T01:16:55.283Z,99.99
2018-06-25T01:17:55.358Z,99.99
2018-06-25T01:18:55.258Z,99.99
2018-06-25T01:19:55.291Z,99.99
2018-06-25T01:20:55.253Z,99.99
2018-06-25T01:21:55.240Z,99.99
2018-06-25T01:22:55.280Z,99.99
2018-06-25T01:23:55.204Z,99.99
2018-06-25T01:24:55.916Z,99.99
2018-06-25T01:25:55.197Z,99.99
2018-06-25T01:26:55.190Z,99.99
2018-06-25T01:27:55.154Z,99.99
2018-06-25T01:28:55.166Z,99.99
2018-06-25T01:29:55.189Z,99.99
2018-06-25T01:30:55.200Z,99.99
2018-06-25T01:31:55.163Z,99.99
2018-06-25T01:32:55.141Z,99.99
2018-06-25T01:33:55.138Z,99.99
2018-06-25T01:34:55.148Z,99.99
2018-06-25T01:35:55.117Z,99.99
2018-06-25T01:36:55.435Z,99.99
2018-06-25T01:37:57.925Z,99.99
2018-06-25T01:38:55.096Z,99.99
2018-06-25T01:39:55.441Z,99.99
2018-06-25T01:40:55.086Z,99.99
2018-06-25T01:41:55.485Z,99.99
2018-06-25T01:42:55.127Z,99.99
2018-06-25T01:43:55.873Z,99.99
2018-06-25T01:44:55.193Z,99.99
2018-06-25T01:45:54.967Z,99.99
2018-06-25T01:46:54.962Z,99.99
2018-06-25T01:47:54.943Z,99.99
2018-06-25T01:48:54.948Z,99.99
2018-06-25T01:49:54.918Z,99.99
2018-06-25T01:50:54.905Z,99.99
2018-06-25T01:51:54.897Z,99.99
2018-06-25T01:52:54.889Z,99.99
2018-06-25T01:53:54.881Z,99.99
2018-06-25T01:54:54.875Z,99.99
2018-06-25T01:55:54.879Z,99.99
2018-06-25T01:56:54.857Z,99.99
2018-06-25T01:57:54.830Z,99.99
2018-06-25T01:58:54.828Z,99.99
2018-06-25T01:59:54.829Z,99.99
2018-06-25T02:00:54.801Z,99.99
2018-06-25T02:01:54.795Z,99.99
2018-06-25T02:02:54.785Z,99.99
2018-06-25T02:03:54.779Z,99.99
2018-06-25T02:04:54.760Z,99.99
2018-06-25T02:05:54.750Z,99.99
2018-06-25T02:06:55.611Z,99.99
2018-06-25T02:07:54.784Z,99.99
2018-06-25T02:08:54.716Z,99.99
2018-06-25T02:09:54.706Z,99.99
2018-06-25T02:10:54.689Z,99.99
2018-06-25T02:11:54.683Z,99.99
2018-06-25T02:12:54.671Z,99.99
2018-06-25T02:14:09.412Z,99.99
2018-06-25T02:14:54.668Z,99.99
2018-06-25T02:15:54.642Z,99.99
2018-06-25T02:16:57.408Z,99.99
2018-06-25T02:17:55.957Z,99.99
2018-06-25T02:18:54.624Z,99.99
2018-06-25T02:19:54.647Z,99.99
2018-06-25T02:20:54.656Z,99.99
2018-06-25T02:21:54.620Z,99.99
2018-06-25T02:22:54.575Z,99.99
2018-06-25T02:23:54.849Z,99.99
2018-06-25T02:24:55.379Z,99.99
2018-06-25T02:25:57.968Z,99.99
2018-06-25T02:26:54.565Z,99.99
2018-06-25T02:27:55.523Z,99.99
2018-06-25T02:28:55.616Z,99.99
2018-06-25T02:29:55.984Z,99.99
2018-06-25T02:30:57.271Z,99.99
2018-06-25T02:31:54.471Z,99.99
2018-06-25T02:32:54.460Z,99.99
2018-06-25T02:33:54.442Z,99.99
2018-06-25T02:34:54.430Z,99.99
2018-06-25T02:35:54.458Z,99.99
2018-06-25T02:36:54.416Z,99.99
2018-06-25T02:37:54.412Z,99.99
2018-06-25T02:38:54.464Z,99.99
2018-06-25T02:39:54.381Z,99.99
2018-06-25T02:40:54.385Z,99.99
2018-06-25T02:41:54.357Z,99.99
2018-06-25T02:42:54.343Z,99.99
2018-06-25T02:43:54.335Z,99.99
2018-06-25T02:44:54.380Z,99.99
2018-06-25T02:45:54.384Z,99.99
2018-06-25T02:46:54.305Z,99.99
2018-06-25T02:47:54.504Z,99.99
2018-06-25T02:48:54.284Z,99.99
2018-06-25T02:49:54.284Z,99.99
2018-06-25T02:50:54.266Z,99.99
2018-06-25T02:51:54.312Z,99.99
2018-06-25T02:52:54.261Z,99.99
2018-06-25T02:53:54.233Z,99.99
2018-06-25T02:54:54.540Z,99.99
2018-06-25T02:55:54.226Z,99.99
2018-06-25T02:56:54.266Z,99.99
2018-06-25T02:57:54.912Z,99.99
2018-06-25T02:58:54.178Z,99.99
2018-06-25T02:59:54.167Z,99.99
2018-06-25T03:00:54.154Z,99.99
2018-06-25T03:01:54.215Z,99.99
2018-06-25T03:02:54.151Z,99.99
2018-06-25T03:03:54.131Z,99.99
2018-06-25T03:04:58.045Z,99.99
2018-06-25T03:05:55.145Z,99.99
2018-06-25T03:07:08.984Z,99.99
2018-06-25T03:07:54.115Z,99.99
2018-06-25T03:08:55.371Z,99.99
2018-06-25T03:09:54.068Z,99.99
2018-06-25T03:10:54.059Z,99.99
2018-06-25T03:11:54.052Z,99.99
2018-06-25T03:12:54.033Z,99.99
2018-06-25T03:13:54.012Z,99.99
2018-06-25T03:14:54.004Z,99.99
2018-06-25T03:16:08.904Z,99.99
2018-06-25T03:16:55.128Z,99.99
2018-06-25T03:17:56.426Z,99.99
2018-06-25T03:18:54.933Z,99.99
2018-06-25T03:19:53.954Z,99.99
2018-06-25T03:20:53.940Z,99.99
2018-06-25T03:21:53.974Z,99.99
2018-06-25T03:22:53.921Z,99.99
2018-06-25T03:23:53.941Z,99.99
2018-06-25T03:24:53.901Z,99.99
2018-06-25T03:25:53.888Z,99.99
2018-06-25T03:26:53.878Z,99.99
2018-06-25T03:27:54.484Z,99.99
2018-06-25T03:28:55.613Z,99.99
2018-06-25T03:29:54.502Z,99.99
2018-06-25T03:30:53.837Z,99.99
2018-06-25T03:31:54.508Z,99.99
2018-06-25T03:32:53.835Z,99.99
2018-06-25T03:33:54.798Z,99.99
2018-06-25T03:34:53.796Z,99.99
2018-06-25T03:35:54.430Z,99.99
2018-06-25T03:36:53.770Z,99.99
2018-06-25T03:37:54.401Z,99.99
2018-06-25T03:38:57.903Z,99.99
2018-06-25T03:39:54.463Z,99.99
2018-06-25T03:40:53.835Z,99.99
2018-06-25T03:41:53.968Z,99.99
2018-06-25T03:42:53.760Z,99.99
2018-06-25T03:43:53.803Z,99.99
2018-06-25T03:44:53.820Z,99.99
2018-06-25T03:45:53.948Z,99.99
2018-06-25T03:46:54.003Z,99.99
2018-06-25T03:47:53.746Z,99.99
2018-06-25T03:48:54.552Z,99.99
2018-06-25T03:49:53.797Z,99.99
2018-06-25T03:50:53.760Z,99.99
2018-06-25T03:51:53.710Z,99.99
2018-06-25T03:52:54.362Z,99.99
2018-06-25T03:53:53.689Z,99.99
2018-06-25T03:54:53.613Z,99.99
2018-06-25T03:55:53.565Z,99.99
2018-06-25T03:56:53.551Z,99.99
2018-06-25T03:57:53.549Z,99.99
2018-06-25T03:58:53.532Z,99.99
2018-06-25T03:59:53.530Z,99.99
2018-06-25T04:00:53.569Z,99.99
2018-06-25T04:01:53.515Z,99.99
2018-06-25T04:02:53.491Z,99.99
2018-06-25T04:03:53.478Z,99.99
2018-06-25T04:04:53.531Z,99.99
2018-06-25T04:05:53.510Z,99.99
2018-06-25T04:06:53.452Z,99.99
2018-06-25T04:07:53.435Z,99.99
2018-06-25T04:08:53.440Z,99.99
2018-06-25T04:09:56.522Z,99.99
2018-06-25T04:10:53.399Z,99.99
2018-06-25T04:11:53.990Z,99.99
2018-06-25T04:12:53.464Z,99.99
2018-06-25T04:13:53.438Z,99.99
2018-06-25T04:14:54.465Z,99.99
2018-06-25T04:15:53.398Z,99.99
2018-06-25T04:16:53.368Z,99.99
2018-06-25T04:17:53.352Z,99.99
2018-06-25T04:18:53.398Z,99.99
2018-06-25T04:19:53.607Z,99.99
2018-06-25T04:20:53.399Z,99.99
2018-06-25T04:21:54.643Z,99.99
2018-06-25T04:22:53.314Z,99.99
2018-06-25T04:23:53.267Z,99.99
2018-06-25T04:24:53.455Z,99.99
2018-06-25T04:25:53.574Z,99.99
2018-06-25T04:26:53.237Z,99.99
2018-06-25T04:27:53.654Z,99.99
2018-06-25T04:28:54.370Z,99.99
2018-06-25T04:29:53.355Z,99.99
2018-06-25T04:30:53.221Z,99.99
2018-06-25T04:31:53.868Z,99.99
2018-06-25T04:32:53.664Z,99.99
2018-06-25T04:33:54.546Z,99.99
2018-06-25T04:34:53.218Z,99.99
2018-06-25T04:35:53.189Z,99.99
2018-06-25T04:36:53.246Z,99.99
2018-06-25T04:37:53.473Z,99.99
2018-06-25T04:38:53.259Z,99.99
2018-06-25T04:39:53.117Z,99.99
2018-06-25T04:40:53.242Z,99.99
2018-06-25T04:41:53.078Z,99.99
2018-06-25T04:42:53.081Z,99.81
2018-06-25T04:43:53.076Z,99.81
2018-06-25T04:44:53.042Z,99.99
2018-06-25T04:45:53.041Z,99.99
2018-06-25T04:46:53.025Z,99.99
2018-06-25T04:47:53.111Z,99.99
2018-06-25T04:48:53.017Z,99.99
2018-06-25T04:49:52.987Z,99.99
2018-06-25T04:50:53.979Z,99.99
2018-06-25T04:51:52.995Z,99.99
2018-06-25T04:52:53.029Z,99.99
2018-06-25T04:53:52.954Z,99.99
2018-06-25T04:54:52.950Z,99.99
2018-06-25T04:55:52.937Z,99.99
2018-06-25T04:56:52.914Z,99.99
2018-06-25T04:57:53.649Z,99.99
2018-06-25T04:58:53.853Z,99.91
2018-06-25T04:59:53.005Z,99.99
2018-06-25T05:00:52.926Z,99.99
2018-06-25T05:01:52.859Z,99.97
2018-06-25T05:02:52.849Z,99.99
2018-06-25T05:03:52.832Z,99.87
2018-06-25T05:04:52.827Z,99.46
2018-06-25T05:05:52.839Z,99.87
2018-06-25T05:06:52.810Z,99.77
2018-06-25T05:07:52.786Z,99.46
2018-06-25T05:08:52.799Z,99.66
2018-06-25T05:09:53.440Z,99.77
2018-06-25T05:10:52.752Z,99.66
2018-06-25T05:11:53.715Z,99.46
2018-06-25T05:12:52.753Z,99.66
2018-06-25T05:13:52.776Z,99.46
2018-06-25T05:14:52.902Z,99.26
2018-06-25T05:15:53.007Z,99.77
2018-06-25T05:16:53.288Z,99.87
2018-06-25T05:17:52.798Z,99.77
2018-06-25T05:18:53.662Z,99.56
2018-06-25T05:19:53.106Z,99.46
2018-06-25T05:20:52.677Z,99.26
2018-06-25T05:21:52.778Z,99.82
2018-06-25T05:22:52.668Z,99.21
2018-06-25T05:23:52.702Z,99.82
2018-06-25T05:24:53.526Z,99.92
2018-06-25T05:25:52.609Z,99.99
2018-06-25T05:26:52.599Z,99.41
2018-06-25T05:27:52.659Z,99.31
2018-06-25T05:28:52.607Z,99.52
2018-06-25T05:29:52.594Z,99.52
2018-06-25T05:30:52.590Z,99.31
2018-06-25T05:31:52.559Z,99.62
2018-06-25T05:32:52.537Z,99.52
2018-06-25T05:33:52.711Z,99.41
2018-06-25T05:34:52.500Z,99.31
2018-06-25T05:35:53.985Z,99.72
2018-06-25T05:36:52.530Z,99.31
2018-06-25T05:37:52.459Z,99.06
2018-06-25T05:38:52.450Z,99.06
2018-06-25T05:39:52.441Z,99.37
2018-06-25T05:40:52.443Z,98.96
2018-06-25T05:41:52.423Z,98.70
2018-06-25T05:42:52.407Z,98.86
2018-06-25T05:43:52.397Z,99.11
2018-06-25T05:44:52.388Z,98.70
2018-06-25T05:45:52.382Z,98.91
2018-06-25T05:46:52.368Z,99.41
2018-06-25T05:47:52.382Z,99.31
2018-06-25T05:48:52.410Z,99.62
2018-06-25T05:49:52.331Z,98.86
2018-06-25T05:50:52.350Z,98.60
2018-06-25T05:51:52.327Z,99.52
2018-06-25T05:52:52.301Z,99.31
2018-06-25T05:53:52.293Z,99.72
2018-06-25T05:54:52.282Z,99.37
2018-06-25T05:55:52.272Z,99.47
2018-06-25T05:56:52.259Z,98.86
2018-06-25T05:57:52.243Z,98.66
2018-06-25T05:58:52.262Z,99.22
2018-06-25T05:59:52.229Z,99.42
2018-06-25T06:00:53.180Z,99.32
2018-06-25T06:01:52.904Z,98.61
2018-06-25T06:02:52.916Z,98.30
2018-06-25T06:03:53.211Z,98.61
2018-06-25T06:04:52.322Z,98.50
2018-06-25T06:05:59.008Z,98.61
2018-06-25T06:06:52.959Z,98.61
2018-06-25T06:07:53.394Z,98.41
2018-06-25T06:08:52.371Z,98.71
2018-06-25T06:09:52.293Z,98.50
2018-06-25T06:10:55.207Z,98.41
2018-06-25T06:11:52.216Z,98.61
2018-06-25T06:12:52.087Z,98.10
2018-06-25T06:13:52.114Z,98.30
2018-06-25T06:14:52.513Z,98.30
2018-06-25T06:15:52.890Z,98.81
2018-06-25T06:16:52.929Z,98.10
2018-06-25T06:17:52.074Z,99.02
2018-06-25T06:18:52.058Z,98.81
2018-06-25T06:19:52.021Z,98.91
2018-06-25T06:20:52.052Z,98.30
2018-06-25T06:21:51.995Z,98.50
2018-06-25T06:22:52.437Z,98.71
2018-06-25T06:23:51.964Z,98.50
2018-06-25T06:24:52.084Z,98.30
2018-06-25T06:25:51.947Z,98.91
2018-06-25T06:26:52.987Z,98.61
2018-06-25T06:27:51.947Z,98.61
2018-06-25T06:28:51.933Z,98.41
2018-06-25T06:29:52.203Z,99.32
2018-06-25T06:30:51.896Z,99.02
2018-06-25T06:31:51.884Z,98.91
2018-06-25T06:32:51.924Z,98.30
2018-06-25T06:33:51.895Z,98.61
2018-06-25T06:34:54.425Z,98.81
2018-06-25T06:35:52.656Z,98.61
2018-06-25T06:36:51.831Z,98.61
2018-06-25T06:37:51.867Z,98.50
2018-06-25T06:38:51.810Z,98.71
2018-06-25T06:39:51.904Z,98.71
2018-06-25T06:40:51.806Z,98.50
2018-06-25T06:41:51.801Z,98.50
2018-06-25T06:42:51.784Z,98.61
2018-06-25T06:43:51.769Z,98.71
2018-06-25T06:44:51.793Z,98.50
2018-06-25T06:45:51.759Z,98.41
2018-06-25T06:46:51.743Z,98.61
2018-06-25T06:47:52.396Z,98.81
2018-06-25T06:48:51.929Z,98.66
2018-06-25T06:49:54.502Z,98.30
2018-06-25T06:50:51.702Z,98.61
2018-06-25T06:51:52.393Z,99.17
2018-06-25T06:52:52.596Z,98.50
2018-06-25T06:53:52.408Z,98.30
2018-06-25T06:54:52.053Z,98.20
2018-06-25T06:55:58.505Z,98.30
2018-06-25T06:56:51.611Z,97.69
2018-06-25T06:57:51.672Z,96.94
2018-06-25T06:58:51.597Z,97.75
2018-06-25T06:59:51.600Z,97.55
2018-06-25T07:00:51.565Z,97.34
2018-06-25T07:01:51.607Z,97.55
2018-06-25T07:02:51.604Z,97.85
2018-06-25T07:03:51.722Z,98.26
2018-06-25T07:04:51.547Z,98.26
2018-06-25T07:05:51.533Z,98.21
2018-06-25T07:06:51.538Z,97.65
2018-06-25T07:07:51.522Z,98.11
2018-06-25T07:08:51.562Z,99.22
2018-06-25T07:09:51.507Z,98.32
2018-06-25T07:10:51.482Z,97.76
2018-06-25T07:11:51.452Z,97.56
2018-06-25T07:12:51.701Z,96.75
2018-06-25T07:13:51.649Z,95.89
2018-06-25T07:14:51.631Z,94.93
2018-06-25T07:15:51.441Z,94.02
2018-06-25T07:16:51.670Z,95.03
2018-06-25T07:17:51.399Z,95.09
2018-06-25T07:18:51.372Z,93.93
2018-06-25T07:19:51.362Z,92.82
2018-06-25T07:20:51.509Z,93.58
2018-06-25T07:21:51.343Z,93.18
2018-06-25T07:22:51.342Z,92.93
2018-06-25T07:23:52.179Z,93.18
2018-06-25T07:24:51.348Z,91.05
2018-06-25T07:25:51.348Z,93.12
2018-06-25T07:26:51.283Z,92.91
2018-06-25T07:27:51.303Z,91.90
2018-06-25T07:28:51.330Z,93.87
2018-06-25T07:29:51.368Z,93.51
2018-06-25T07:30:51.247Z,93.81
2018-06-25T07:31:51.241Z,94.73
2018-06-25T07:32:51.222Z,94.89
2018-06-25T07:33:51.243Z,94.93
2018-06-25T07:34:51.404Z,94.42
2018-06-25T07:35:51.317Z,93.10
2018-06-25T07:36:51.336Z,94.93
2018-06-25T07:37:51.216Z,94.62
2018-06-25T07:38:51.850Z,92.90
2018-06-25T07:39:51.214Z,93.21
2018-06-25T07:40:51.211Z,94.02
2018-06-25T07:41:51.316Z,94.12
2018-06-25T07:42:51.196Z,94.26
2018-06-25T07:43:51.154Z,95.07
2018-06-25T07:44:51.178Z,94.87
2018-06-25T07:45:51.097Z,94.77
2018-06-25T07:46:51.927Z,95.89
2018-06-25T07:47:51.098Z,95.79
2018-06-25T07:48:51.097Z,95.28
2018-06-25T07:49:51.098Z,95.34
2018-06-25T07:50:51.032Z,94.38
2018-06-25T07:51:51.966Z,94.43
2018-06-25T07:52:51.082Z,93.78
2018-06-25T07:53:50.996Z,93.74
2018-06-25T07:54:50.991Z,92.79
2018-06-25T07:55:51.007Z,92.42
2018-06-25T07:56:50.962Z,91.51
2018-06-25T07:57:50.970Z,92.97
2018-06-25T07:58:50.955Z,93.99
2018-06-25T07:59:50.925Z,91.96
2018-06-25T08:00:50.952Z,92.21
2018-06-25T08:01:50.909Z,92.82
2018-06-25T08:02:50.976Z,91.80
2018-06-25T08:03:50.905Z,92.96
2018-06-25T08:04:51.016Z,92.96
2018-06-25T08:05:51.013Z,93.77
2018-06-25T08:06:50.916Z,94.58
2018-06-25T08:07:57.786Z,94.18
2018-06-25T08:08:50.856Z,94.07
2018-06-25T08:09:51.170Z,94.48
2018-06-25T08:10:51.451Z,95.59
2018-06-25T08:11:51.149Z,93.91
2018-06-25T08:12:50.791Z,94.83
2018-06-25T08:13:50.799Z,93.91
2018-06-25T08:14:50.776Z,94.53
2018-06-25T08:15:53.116Z,95.03
2018-06-25T08:16:50.798Z,95.09
2018-06-25T08:17:50.814Z,94.89
2018-06-25T08:18:50.795Z,95.35
2018-06-25T08:19:50.758Z,93.93
2018-06-25T08:20:50.860Z,94.58
2018-06-25T08:21:50.801Z,95.14
2018-06-25T08:22:50.838Z,95.19
2018-06-25T08:23:50.794Z,94.18
2018-06-25T08:24:50.690Z,93.26
2018-06-25T08:25:50.783Z,93.77
2018-06-25T08:26:50.738Z,94.78
2018-06-25T08:27:50.811Z,94.83
2018-06-25T08:28:50.703Z,95.54
2018-06-25T08:29:50.634Z,95.59
2018-06-25T08:30:50.593Z,94.98
2018-06-25T08:31:50.579Z,95.09
2018-06-25T08:32:50.636Z,93.02
2018-06-25T08:33:50.674Z,93.02
2018-06-25T08:34:50.556Z,94.03
2018-06-25T08:35:50.633Z,94.13
2018-06-25T08:36:50.519Z,94.34
2018-06-25T08:37:52.343Z,93.02
2018-06-25T08:38:50.502Z,92.91
2018-06-25T08:39:50.516Z,93.97
2018-06-25T08:40:50.478Z,94.13
2018-06-25T08:41:50.504Z,94.03
2018-06-25T08:42:50.463Z,95.35
2018-06-25T08:43:50.485Z,92.10
2018-06-25T08:44:50.439Z,93.32
2018-06-25T08:45:51.421Z,92.51
2018-06-25T08:46:50.413Z,91.05
2018-06-25T08:47:50.432Z,90.34
2018-06-25T08:48:50.640Z,92.02
2018-06-25T08:49:50.373Z,90.80
2018-06-25T08:50:50.449Z,91.37
2018-06-25T08:51:50.924Z,90.52
2018-06-25T08:52:50.403Z,90.47
2018-06-25T08:53:50.436Z,90.67
2018-06-25T08:54:50.371Z,87.50
2018-06-25T08:55:50.321Z,86.65
2018-06-25T08:56:51.042Z,87.86
2018-06-25T08:57:50.312Z,87.01
2018-06-25T08:58:50.966Z,88.28
2018-06-25T08:59:50.290Z,86.22
2018-06-25T09:00:50.288Z,85.38
2018-06-25T09:01:50.248Z,80.30
2018-06-25T09:02:53.239Z,83.54
2018-06-25T09:03:50.231Z,81.19
2018-06-25T09:04:50.655Z,80.75
2018-06-25T09:05:50.248Z,79.64
2018-06-25T09:06:50.229Z,79.64
2018-06-25T09:07:51.935Z,80.45
2018-06-25T09:08:50.207Z,74.78
2018-06-25T09:09:50.461Z,78.66
2018-06-25T09:10:50.470Z,77.83
2018-06-25T09:11:50.400Z,73.27
2018-06-25T09:12:52.913Z,75.18
2018-06-25T09:13:50.240Z,78.79
2018-06-25T09:14:50.436Z,79.86
2018-06-25T09:15:50.173Z,78.05
2018-06-25T09:16:50.152Z,73.30
2018-06-25T09:17:50.267Z,72.17
2018-06-25T09:18:50.078Z,73.30
2018-06-25T09:19:50.406Z,72.13
2018-06-25T09:20:50.052Z,76.19
2018-06-25T09:21:50.089Z,73.31
2018-06-25T09:22:50.030Z,77.67
2018-06-25T09:23:50.022Z,80.19
2018-06-25T09:24:50.040Z,77.23
2018-06-25T09:25:50.035Z,78.41
2018-06-25T09:26:50.028Z,76.80
2018-06-25T09:27:49.990Z,82.04
2018-06-25T09:28:49.965Z,83.65
2018-06-25T09:29:50.896Z,76.84
2018-06-25T09:30:49.982Z,78.79
2018-06-25T09:31:49.935Z,77.78
2018-06-25T09:32:50.893Z,78.72
2018-06-25T09:33:49.908Z,76.71
2018-06-25T09:34:50.177Z,79.23
2018-06-25T09:35:50.887Z,80.50
2018-06-25T09:36:49.971Z,80.84
2018-06-25T09:37:50.690Z,77.72
2018-06-25T09:38:49.910Z,80.13
2018-06-25T09:39:49.876Z,79.29
2018-06-25T09:40:49.924Z,76.97
2018-06-25T09:41:50.051Z,82.11
2018-06-25T09:42:49.817Z,78.89
2018-06-25T09:43:49.805Z,79.05
2018-06-25T09:44:49.819Z,77.55
2018-06-25T09:45:49.867Z,76.87
2018-06-25T09:46:49.880Z,77.42
2018-06-25T09:47:49.787Z,82.25
2018-06-25T09:48:50.353Z,76.95
2018-06-25T09:49:49.775Z,82.13
2018-06-25T09:50:49.735Z,82.23
2018-06-25T09:51:49.968Z,83.44
2018-06-25T09:52:49.713Z,84.65
2018-06-25T09:53:49.770Z,81.87
2018-06-25T09:54:49.785Z,82.67
2018-06-25T09:55:49.759Z,83.28
2018-06-25T09:56:49.758Z,84.33
2018-06-25T09:57:49.681Z,84.43
2018-06-25T09:58:49.702Z,86.59
2018-06-25T09:59:49.681Z,84.06
2018-06-25T10:00:49.702Z,82.45
2018-06-25T10:01:49.864Z,82.59
2018-06-25T10:02:49.647Z,82.14
2018-06-25T10:03:49.926Z,85.02
2018-06-25T10:04:49.609Z,83.96
2018-06-25T10:05:49.805Z,83.36
2018-06-25T10:06:49.602Z,83.32
2018-06-25T10:07:49.649Z,83.92
2018-06-25T10:08:51.237Z,83.78
2018-06-25T10:09:49.535Z,84.15
2018-06-25T10:10:51.079Z,79.27
2018-06-25T10:11:49.547Z,78.52
2018-06-25T10:12:49.493Z,78.49
2018-06-25T10:13:49.519Z,83.48
2018-06-25T10:14:49.530Z,80.26
2018-06-25T10:15:49.464Z,77.81
2018-06-25T10:16:49.529Z,76.60
2018-06-25T10:17:49.467Z,79.11
2018-06-25T10:18:49.483Z,79.32
2018-06-25T10:19:56.833Z,76.34
2018-06-25T10:20:50.615Z,78.55
2018-06-25T10:21:49.431Z,75.23
2018-06-25T10:22:49.453Z,79.66
2018-06-25T10:23:49.398Z,78.89
2018-06-25T10:24:49.365Z,76.40
2018-06-25T10:25:49.359Z,77.15
2018-06-25T10:26:49.345Z,79.57
2018-06-25T10:27:49.330Z,82.33
2018-06-25T10:28:49.326Z,82.13
2018-06-25T10:29:49.316Z,83.88
2018-06-25T10:30:49.306Z,80.25
2018-06-25T10:32:04.060Z,82.37
2018-06-25T10:32:49.287Z,80.15
2018-06-25T10:33:50.024Z,79.88
2018-06-25T10:34:50.435Z,79.99
2018-06-25T10:35:49.435Z,79.58
2018-06-25T10:36:49.236Z,80.55
2018-06-25T10:37:52.965Z,78.13
2018-06-25T10:38:49.270Z,79.30
2018-06-25T10:39:49.249Z,77.01
2018-06-25T10:40:49.230Z,77.68
2018-06-25T10:41:49.251Z,76.84
2018-06-25T10:42:49.572Z,78.74
2018-06-25T10:43:49.191Z,75.22
2018-06-25T10:44:49.204Z,76.29
2018-06-25T10:45:49.140Z,75.18
2018-06-25T10:46:49.185Z,76.65
2018-06-25T10:47:49.223Z,71.94
2018-06-25T10:48:49.433Z,72.53
2018-06-25T10:49:49.156Z,74.24
2018-06-25T10:50:49.107Z,76.45
2018-06-25T10:51:49.194Z,71.63
2018-06-25T10:52:49.078Z,73.14
2018-06-25T10:53:49.077Z,74.04
2018-06-25T10:54:49.432Z,72.44
2018-06-25T10:55:49.960Z,77.62
2018-06-25T10:56:49.057Z,71.40
2018-06-25T10:57:49.080Z,72.44
2018-06-25T10:58:49.577Z,71.43
2018-06-25T10:59:49.180Z,71.94
2018-06-25T11:00:48.987Z,71.70
2018-06-25T11:01:48.972Z,72.53
2018-06-25T11:02:48.955Z,72.00
2018-06-25T11:03:48.953Z,73.64
2018-06-25T11:04:48.937Z,69.53
2018-06-25T11:05:48.982Z,68.25
2018-06-25T11:06:48.915Z,71.53
2018-06-25T11:07:48.933Z,71.33
2018-06-25T11:08:48.891Z,71.20
2018-06-25T11:09:48.880Z,67.88
2018-06-25T11:10:48.900Z,67.96
2018-06-25T11:11:48.857Z,66.62
2018-06-25T11:12:49.181Z,65.45
2018-06-25T11:13:48.844Z,66.55
2018-06-25T11:14:49.873Z,67.72
2018-06-25T11:15:49.304Z,64.92
2018-06-25T11:16:48.810Z,67.15
2018-06-25T11:17:48.814Z,66.45
2018-06-25T11:18:48.930Z,65.75
2018-06-25T11:19:48.797Z,66.45
2018-06-25T11:20:48.776Z,66.49
2018-06-25T11:21:49.479Z,68.36
2018-06-25T11:22:48.772Z,62.79
2018-06-25T11:23:48.752Z,64.26
2018-06-25T11:24:48.736Z,62.53
2018-06-25T11:25:48.717Z,64.86
2018-06-25T11:26:48.725Z,63.19
2018-06-25T11:27:48.793Z,62.08
2018-06-25T11:28:48.697Z,63.54
2018-06-25T11:29:48.671Z,64.58
2018-06-25T11:30:48.705Z,67.02
2018-06-25T11:31:48.679Z,64.94
2018-06-25T11:32:48.691Z,67.11
2018-06-25T11:33:49.391Z,70.32
2018-06-25T11:34:50.726Z,66.64
2018-06-25T11:35:49.420Z,70.76
2018-06-25T11:36:48.641Z,66.74
2018-06-25T11:37:48.745Z,68.35
2018-06-25T11:38:48.604Z,68.45
2018-06-25T11:39:48.587Z,68.75
2018-06-25T11:40:48.555Z,68.75
2018-06-25T11:41:48.579Z,71.13
2018-06-25T11:42:49.377Z,68.02
2018-06-25T11:43:52.872Z,70.93
2018-06-25T11:44:48.516Z,68.59
2018-06-25T11:45:48.513Z,66.55
2018-06-25T11:46:49.810Z,68.76
2018-06-25T11:47:48.493Z,65.84
2018-06-25T11:48:48.482Z,65.74
2018-06-25T11:49:48.485Z,70.86
2018-06-25T11:50:48.463Z,68.95
2018-06-25T11:51:48.519Z,67.61
2018-06-25T11:52:48.460Z,66.78
2018-06-25T11:53:48.487Z,66.96
2018-06-25T11:54:48.417Z,58.74
2018-06-25T11:55:48.397Z,53.51
2018-06-25T11:56:48.395Z,52.76
2018-06-25T11:57:48.470Z,52.91
2018-06-25T11:58:48.407Z,50.58
2018-06-25T11:59:48.362Z,50.93
2018-06-25T12:00:48.471Z,49.78
2018-06-25T12:01:48.563Z,51.84
2018-06-25T12:02:48.549Z,59.11
2018-06-25T12:03:49.463Z,57.17
2018-06-25T12:04:48.317Z,57.87
2018-06-25T12:05:48.313Z,58.29
2018-06-25T12:06:48.332Z,59.62
2018-06-25T12:07:48.344Z,63.39
2018-06-25T12:08:49.019Z,65.49
2018-06-25T12:09:48.287Z,59.86
2018-06-25T12:10:48.278Z,60.14
2018-06-25T12:11:49.025Z,59.04
2018-06-25T12:12:48.322Z,57.34
2018-06-25T12:13:48.226Z,57.54
2018-06-25T12:14:48.245Z,56.44
2018-06-25T12:15:48.340Z,56.51
2018-06-25T12:16:48.434Z,60.48
2018-06-25T12:17:48.207Z,58.18
2018-06-25T12:18:48.262Z,53.49
2018-06-25T12:19:48.279Z,55.58
2018-06-25T12:20:48.563Z,59.02
2018-06-25T12:21:48.127Z,60.66
2018-06-25T12:22:48.128Z,55.16
2018-06-25T12:23:48.112Z,54.33
2018-06-25T12:24:48.094Z,55.30
2018-06-25T12:25:48.093Z,50.33
2018-06-25T12:26:48.078Z,53.34
2018-06-25T12:27:48.093Z,52.74
2018-06-25T12:28:48.058Z,51.47
2018-06-25T12:29:48.048Z,55.13
2018-06-25T12:30:48.040Z,50.33
2018-06-25T12:31:48.031Z,54.60
2018-06-25T12:32:48.045Z,50.58
2018-06-25T12:33:48.005Z,49.08
2018-06-25T12:34:48.001Z,54.11
2018-06-25T12:35:47.984Z,52.97
2018-06-25T12:36:48.008Z,55.18
2018-06-25T12:37:47.975Z,51.45
2018-06-25T12:38:48.125Z,54.46
2018-06-25T12:39:47.953Z,58.01
2018-06-25T12:40:47.952Z,56.41
2018-06-25T12:41:47.925Z,57.11
2018-06-25T12:42:47.913Z,56.81
2018-06-25T12:43:47.909Z,57.88
2018-06-25T12:44:48.064Z,53.52
2018-06-25T12:45:47.971Z,53.81
2018-06-25T12:46:47.872Z,57.39
2018-06-25T12:47:47.861Z,53.39
2018-06-25T12:48:48.630Z,48.80
2018-06-25T12:49:47.851Z,53.29
2018-06-25T12:50:47.839Z,53.66
2018-06-25T12:51:47.851Z,52.04
2018-06-25T12:52:47.807Z,52.14